createdAt,value
2023-05-22T00:00:26.139Z,20.28
2023-05-22T00:01:25.314Z,20.19
2023-05-22T00:02:25.098Z,20.19
2023-05-22T00:04:44.437Z,19.89
2023-05-22T00:05:44.301Z,19.62
2023-05-22T00:06:44.299Z,19.20
2023-05-22T00:07:45.076Z,18.90
2023-05-22T00:08:45.151Z,19.06
2023-05-22T00:09:44.050Z,19.16
2023-05-22T00:10:44.075Z,19.24
2023-05-22T00:11:45.134Z,19.30
2023-05-22T00:12:44.986Z,19.34
2023-05-22T00:13:44.040Z,19.03
2023-05-22T00:16:02.909Z,18.93
2023-05-22T00:17:04.169Z,19.02
2023-05-22T00:18:02.859Z,19.09
2023-05-22T00:19:02.973Z,19.11
2023-05-22T00:20:02.934Z,19.10
2023-05-22T00:21:03.081Z,19.13
2023-05-22T00:23:21.986Z,19.39
2023-05-22T00:24:23.019Z,19.50
2023-05-22T00:27:03.405Z,19.69
2023-05-22T00:28:03.455Z,19.72
2023-05-22T00:29:03.305Z,19.76
2023-05-22T00:30:03.316Z,19.65
2023-05-22T00:31:03.129Z,19.38
2023-05-22T00:32:04.073Z,18.95
2023-05-22T00:33:04.180Z,18.55
2023-05-22T00:34:04.083Z,18.43
2023-05-22T00:35:04.054Z,18.31
2023-05-22T00:36:03.054Z,18.40
2023-05-22T00:37:03.048Z,18.30
2023-05-22T00:38:03.225Z,18.34
2023-05-22T00:39:04.101Z,18.55
2023-05-22T00:40:03.016Z,18.71
2023-05-22T00:41:04.030Z,18.80
2023-05-22T00:42:04.122Z,18.96
2023-05-22T00:43:03.233Z,18.96
2023-05-22T00:44:03.254Z,18.90
2023-05-22T00:48:16.228Z,18.24
2023-05-22T00:49:16.960Z,18.44
2023-05-22T00:50:16.185Z,18.56
2023-05-22T00:51:16.888Z,18.71
2023-05-22T00:52:17.040Z,18.82
2023-05-22T00:53:16.038Z,18.89
2023-05-22T00:54:16.952Z,18.80
2023-05-22T00:55:15.858Z,18.72
2023-05-22T00:56:16.826Z,18.62
2023-05-22T00:57:15.799Z,18.44
2023-05-22T00:58:16.805Z,18.34
2023-05-22T01:00:35.049Z,18.24
2023-05-22T01:01:35.057Z,18.37
2023-05-22T01:02:34.750Z,18.51
2023-05-22T01:05:32.163Z,18.61
2023-05-22T01:06:32.288Z,18.64
2023-05-22T01:07:33.017Z,18.40
2023-05-22T01:08:32.954Z,18.33
2023-05-22T01:09:32.001Z,18.31
2023-05-22T01:12:10.377Z,18.24
2023-05-22T01:15:07.748Z,18.62
2023-05-22T01:16:07.809Z,18.66
2023-05-22T01:17:07.734Z,18.75
2023-05-22T01:18:08.753Z,18.82
2023-05-22T01:19:07.614Z,18.89
2023-05-22T01:20:07.482Z,18.92
2023-05-22T01:21:07.416Z,18.98
2023-05-22T01:22:07.392Z,19.02
2023-05-22T01:23:07.400Z,18.71
2023-05-22T01:24:08.432Z,18.89
2023-05-22T01:25:07.575Z,18.93
2023-05-22T01:26:08.391Z,18.95
2023-05-22T01:31:36.937Z,18.33
2023-05-22T01:32:36.807Z,18.40
2023-05-22T01:33:36.887Z,18.48
2023-05-22T01:34:37.593Z,18.55
2023-05-22T01:35:37.655Z,18.58
2023-05-22T01:36:37.590Z,18.62
2023-05-22T01:37:37.723Z,18.61
2023-05-22T01:38:37.515Z,18.64
2023-05-22T01:39:36.539Z,18.64
2023-05-22T01:40:37.774Z,18.64
2023-05-22T01:41:37.617Z,18.71
2023-05-22T01:42:36.630Z,18.46
2023-05-22T01:43:36.555Z,18.37
2023-05-22T01:44:36.533Z,17.88
2023-05-22T01:45:36.721Z,17.78
2023-05-22T01:46:36.480Z,17.76
2023-05-22T01:53:54.397Z,17.37
2023-05-22T01:54:54.252Z,17.51
2023-05-22T01:55:54.352Z,17.65
2023-05-22T01:56:54.029Z,17.74
2023-05-22T01:57:55.166Z,17.84
2023-05-22T01:58:55.063Z,17.92
2023-05-22T01:59:55.126Z,18.02
2023-05-22T02:00:54.028Z,18.09
2023-05-22T02:01:54.957Z,18.14
2023-05-22T02:02:54.949Z,18.23
2023-05-22T02:03:53.878Z,18.24
2023-05-22T02:04:54.882Z,18.23
2023-05-22T02:05:54.872Z,17.81
2023-05-22T02:06:54.901Z,17.20
2023-05-22T02:07:54.861Z,16.96
2023-05-22T02:08:54.838Z,16.76
2023-05-22T02:09:53.865Z,16.78
2023-05-22T02:10:54.817Z,16.82
2023-05-22T02:11:53.820Z,16.74
2023-05-22T02:12:54.859Z,16.80
2023-05-22T02:15:13.332Z,16.67
2023-05-22T02:16:14.488Z,16.35
2023-05-22T02:17:14.266Z,16.19
2023-05-22T02:18:13.326Z,16.35
2023-05-22T02:19:14.291Z,16.60
2023-05-22T02:20:13.214Z,16.67
2023-05-22T02:21:14.190Z,16.72
2023-05-22T02:22:14.215Z,16.76
2023-05-22T02:23:13.208Z,16.80
2023-05-22T02:25:32.276Z,16.76
2023-05-22T02:26:33.413Z,16.92
2023-05-22T02:29:46.004Z,17.17
2023-05-22T02:30:45.765Z,17.31
2023-05-22T02:31:45.966Z,17.37
2023-05-22T02:32:46.702Z,17.42
2023-05-22T02:33:45.651Z,17.50
2023-05-22T02:34:46.707Z,17.52
2023-05-22T02:35:46.651Z,17.60
2023-05-22T02:38:05.198Z,17.67
2023-05-22T02:39:04.985Z,17.71
2023-05-22T02:41:24.388Z,17.48
2023-05-22T02:42:24.557Z,17.30
2023-05-22T02:43:25.324Z,17.26
2023-05-22T02:44:25.267Z,16.86
2023-05-22T02:45:24.314Z,16.76
2023-05-22T02:46:25.317Z,16.96
2023-05-22T02:47:25.273Z,17.06
2023-05-22T02:48:25.260Z,17.13
2023-05-22T02:49:24.256Z,17.09
2023-05-22T02:50:24.221Z,16.95
2023-05-22T02:51:24.218Z,17.01
2023-05-22T02:52:25.213Z,17.07
2023-05-22T02:53:25.236Z,17.13
2023-05-22T02:54:25.211Z,17.19
2023-05-22T02:55:25.226Z,17.20
2023-05-22T02:56:25.202Z,17.12
2023-05-22T02:57:25.204Z,17.14
2023-05-22T02:58:25.177Z,17.19
2023-05-22T02:59:25.227Z,17.19
2023-05-22T03:00:25.163Z,16.89
2023-05-22T03:01:25.215Z,16.68
2023-05-22T03:02:25.190Z,16.61
2023-05-22T03:03:25.398Z,16.51
2023-05-22T03:04:25.128Z,16.52
2023-05-22T03:05:25.167Z,16.54
2023-05-22T03:09:09.167Z,16.93
2023-05-22T03:10:10.179Z,17.01
2023-05-22T03:11:09.874Z,17.09
2023-05-22T03:15:36.274Z,16.92
2023-05-22T03:16:36.056Z,16.96
2023-05-22T03:17:37.326Z,17.02
2023-05-22T03:18:36.957Z,17.05
2023-05-22T03:19:36.921Z,16.93
2023-05-22T03:20:37.200Z,16.72
2023-05-22T03:22:55.344Z,16.57
2023-05-22T03:23:56.538Z,16.51
2023-05-22T03:24:56.261Z,16.50
2023-05-22T03:25:56.260Z,16.20
2023-05-22T03:26:55.271Z,16.10
2023-05-22T03:29:37.060Z,15.65
2023-05-22T03:30:38.557Z,15.71
2023-05-22T03:31:37.019Z,15.68
2023-05-22T03:32:36.964Z,15.71
2023-05-22T03:33:38.069Z,15.93
2023-05-22T03:34:36.980Z,16.08
2023-05-22T03:35:37.932Z,16.20
2023-05-22T03:36:37.995Z,16.28
2023-05-22T03:38:58.240Z,16.23
2023-05-22T03:39:58.478Z,16.21
2023-05-22T03:42:16.930Z,15.84
2023-05-22T03:43:17.747Z,16.02
2023-05-22T03:44:17.921Z,16.17
2023-05-22T03:45:17.662Z,16.26
2023-05-22T03:47:36.312Z,16.44
2023-05-22T03:48:36.453Z,16.52
2023-05-22T03:49:37.240Z,16.61
2023-05-22T03:50:37.386Z,16.68
2023-05-22T03:51:37.190Z,16.64
2023-05-22T03:52:36.142Z,16.74
2023-05-22T03:53:37.160Z,16.75
2023-05-22T03:54:36.188Z,16.88
2023-05-22T03:55:37.119Z,16.93
2023-05-22T03:56:36.117Z,16.95
2023-05-22T03:57:37.135Z,16.99
2023-05-22T03:58:37.104Z,17.02
2023-05-22T03:59:37.117Z,16.93
2023-05-22T04:00:37.134Z,16.95
2023-05-22T04:01:36.071Z,16.82
2023-05-22T04:02:37.155Z,16.76
2023-05-22T04:05:08.455Z,16.67
2023-05-22T04:06:08.219Z,16.55
2023-05-22T04:07:09.416Z,16.16
2023-05-22T04:08:09.154Z,16.09
2023-05-22T04:09:09.118Z,16.09
2023-05-22T04:10:09.146Z,16.21
2023-05-22T04:11:09.107Z,16.34
2023-05-22T04:13:27.707Z,16.44
2023-05-22T04:14:28.801Z,16.44
2023-05-22T04:15:27.664Z,16.43
2023-05-22T04:16:28.667Z,16.45
2023-05-22T04:17:27.577Z,16.39
2023-05-22T04:18:28.518Z,16.52
2023-05-22T04:19:27.593Z,16.54
2023-05-22T04:20:28.558Z,16.40
2023-05-22T04:21:28.484Z,16.30
2023-05-22T04:23:47.029Z,16.33
2023-05-22T04:24:47.183Z,16.00
2023-05-22T04:25:48.066Z,16.12
2023-05-22T04:26:46.918Z,16.02
2023-05-22T04:27:46.957Z,16.13
2023-05-22T04:28:46.907Z,16.12
2023-05-22T04:31:06.570Z,16.26
2023-05-22T04:32:06.201Z,16.39
2023-05-22T04:33:07.408Z,16.48
2023-05-22T04:34:07.110Z,16.58
2023-05-22T04:35:07.082Z,16.65
2023-05-22T04:36:06.139Z,16.74
2023-05-22T04:37:06.075Z,16.79
2023-05-22T04:38:06.072Z,16.78
2023-05-22T04:39:06.080Z,16.68
2023-05-22T04:40:07.065Z,16.41
2023-05-22T04:41:07.057Z,16.13
2023-05-22T04:42:06.045Z,16.20
2023-05-22T04:43:06.040Z,16.24
2023-05-22T04:44:07.055Z,16.30
2023-05-22T04:45:07.029Z,16.19
2023-05-22T04:46:06.035Z,16.12
2023-05-22T04:47:08.028Z,15.98
2023-05-22T04:48:07.184Z,15.95
2023-05-22T04:49:06.982Z,15.92
2023-05-22T04:50:06.032Z,15.98
2023-05-22T04:51:07.056Z,16.00
2023-05-22T04:52:07.114Z,16.19
2023-05-22T04:53:06.127Z,16.31
2023-05-22T04:54:06.177Z,16.45
2023-05-22T04:55:07.222Z,16.48
2023-05-22T04:56:06.332Z,16.61
2023-05-22T04:57:07.268Z,16.72
2023-05-22T04:58:07.345Z,16.82
2023-05-22T04:59:07.347Z,16.79
2023-05-22T05:00:07.388Z,16.65
2023-05-22T05:01:07.502Z,16.62
2023-05-22T05:02:06.472Z,16.57
2023-05-22T05:05:45.276Z,16.57
2023-05-22T05:09:23.736Z,16.40
2023-05-22T05:10:23.928Z,16.50
2023-05-22T05:11:23.638Z,16.51
2023-05-22T05:12:23.649Z,16.68
2023-05-22T05:14:43.364Z,16.74
2023-05-22T05:15:43.172Z,16.69
2023-05-22T05:18:02.197Z,16.48
2023-05-22T05:25:13.453Z,16.67
2023-05-22T05:26:13.256Z,16.60
2023-05-22T05:27:14.412Z,16.71
2023-05-22T05:28:13.206Z,16.78
2023-05-22T05:29:14.145Z,16.79
2023-05-22T05:30:13.182Z,16.64
2023-05-22T05:31:14.137Z,16.51
2023-05-22T05:32:14.193Z,16.58
2023-05-22T05:33:13.265Z,16.57
2023-05-22T05:34:14.127Z,16.62
2023-05-22T05:35:13.133Z,16.78
2023-05-22T05:36:13.105Z,16.78
2023-05-22T05:37:13.090Z,16.93
2023-05-22T05:38:14.124Z,17.01
2023-05-22T05:39:13.075Z,16.89
2023-05-22T05:40:13.098Z,16.89
2023-05-22T05:41:13.194Z,17.03
2023-05-22T05:42:14.068Z,17.14
2023-05-22T05:43:14.117Z,17.17
2023-05-22T05:48:14.108Z,17.35
2023-05-22T05:49:14.085Z,17.37
2023-05-22T05:50:13.117Z,17.47
2023-05-22T05:51:13.176Z,17.57
2023-05-22T05:52:13.069Z,17.58
2023-05-22T05:53:13.069Z,17.65
2023-05-22T05:54:14.095Z,17.64
2023-05-22T05:55:14.076Z,17.62
2023-05-22T05:56:14.039Z,17.67
2023-05-22T05:57:14.074Z,17.71
2023-05-22T05:58:14.789Z,17.74
2023-05-22T05:59:13.999Z,17.82
2023-05-22T06:00:14.034Z,17.93
2023-05-22T06:01:14.035Z,17.97
2023-05-22T06:02:14.052Z,18.02
2023-05-22T06:03:14.126Z,18.10
2023-05-22T06:04:12.971Z,18.14
2023-05-22T06:05:13.972Z,18.23
2023-05-22T06:06:13.960Z,18.20
2023-05-22T06:07:12.963Z,18.26
2023-05-22T06:08:13.979Z,18.24
2023-05-22T06:09:13.993Z,18.31
2023-05-22T06:10:13.933Z,18.37
2023-05-22T06:11:13.936Z,18.37
2023-05-22T06:12:14.010Z,18.31
2023-05-22T06:13:13.062Z,18.44
2023-05-22T06:14:14.079Z,18.48
2023-05-22T06:15:14.179Z,18.48
2023-05-22T06:16:14.165Z,18.58
2023-05-22T06:17:14.155Z,18.52
2023-05-22T06:18:13.401Z,18.40
2023-05-22T06:19:14.295Z,18.47
2023-05-22T06:20:14.406Z,18.54
2023-05-22T06:21:15.897Z,18.33
2023-05-22T06:22:13.638Z,18.10
2023-05-22T06:23:14.668Z,18.20
2023-05-22T06:24:14.577Z,18.31
2023-05-22T06:25:14.633Z,18.26
2023-05-22T06:26:14.902Z,18.27
2023-05-22T06:27:14.091Z,18.40
2023-05-22T06:28:13.791Z,18.47
2023-05-22T06:29:14.850Z,18.50
2023-05-22T06:30:16.909Z,18.61
2023-05-22T06:31:14.871Z,18.65
2023-05-22T06:32:14.974Z,18.62
2023-05-22T06:33:14.945Z,18.68
2023-05-22T06:34:13.858Z,18.75
2023-05-22T06:35:15.815Z,18.66
2023-05-22T06:36:14.909Z,18.40
2023-05-22T06:37:14.890Z,18.55
2023-05-22T06:38:13.801Z,18.68
2023-05-22T06:39:14.795Z,18.78
2023-05-22T06:40:15.699Z,18.82
2023-05-22T06:41:14.882Z,18.88
2023-05-22T06:42:14.809Z,18.79
2023-05-22T06:43:14.767Z,18.93
2023-05-22T06:45:33.309Z,18.83
2023-05-22T06:46:33.309Z,18.92
2023-05-22T06:47:33.186Z,18.85
2023-05-22T06:48:34.231Z,18.80
2023-05-22T06:49:34.157Z,18.66
2023-05-22T06:50:33.115Z,18.72
2023-05-22T06:51:33.157Z,18.72
2023-05-22T06:52:34.128Z,18.82
2023-05-22T06:53:34.128Z,18.55
2023-05-22T06:54:34.116Z,18.30
2023-05-22T06:55:34.138Z,18.30
2023-05-22T06:56:34.419Z,18.51
2023-05-22T06:57:33.117Z,18.66
2023-05-22T06:58:34.086Z,18.62
2023-05-22T06:59:34.091Z,18.71
2023-05-22T07:00:33.100Z,18.71
2023-05-22T07:01:34.222Z,18.83
2023-05-22T07:02:34.533Z,18.76
2023-05-22T07:04:51.988Z,18.75
2023-05-22T07:05:53.052Z,18.99
2023-05-22T07:06:53.104Z,18.68
2023-05-22T07:07:52.985Z,18.52
2023-05-22T07:08:52.962Z,18.71
2023-05-22T07:09:52.975Z,18.78
2023-05-22T07:10:52.973Z,18.85
2023-05-22T07:11:51.970Z,19.00
2023-05-22T07:12:51.988Z,18.99
2023-05-22T07:13:52.582Z,19.06
2023-05-22T07:14:51.924Z,19.09
2023-05-22T07:15:53.050Z,19.11
2023-05-22T07:16:52.978Z,19.20
2023-05-22T07:17:52.925Z,19.16
2023-05-22T07:18:53.037Z,19.17
2023-05-22T07:19:52.884Z,18.83
2023-05-22T07:20:52.928Z,19.00
2023-05-22T07:21:52.906Z,19.18
2023-05-22T07:22:52.893Z,19.34
2023-05-22T07:23:51.899Z,19.14
2023-05-22T07:24:52.889Z,19.16
2023-05-22T07:25:52.890Z,19.17
2023-05-22T07:26:52.836Z,19.30
2023-05-22T07:27:52.916Z,19.07
2023-05-22T07:28:52.834Z,19.28
2023-05-22T07:29:51.823Z,19.34
2023-05-22T07:30:52.808Z,19.54
2023-05-22T07:31:51.943Z,19.62
2023-05-22T07:32:53.010Z,19.44
2023-05-22T07:33:52.813Z,19.65
2023-05-22T07:34:52.790Z,19.78
2023-05-22T07:35:52.789Z,19.78
2023-05-22T07:36:51.776Z,19.82
2023-05-22T07:37:52.803Z,19.75
2023-05-22T07:38:51.769Z,19.85
2023-05-22T07:39:52.849Z,19.96
2023-05-22T07:40:51.864Z,19.95
2023-05-22T07:41:54.543Z,20.06
2023-05-22T07:42:52.826Z,20.17
2023-05-22T07:44:03.243Z,20.06
2023-05-22T07:46:11.338Z,19.86
2023-05-22T07:47:11.204Z,19.96
2023-05-22T07:49:32.400Z,20.12
2023-05-22T07:50:31.240Z,20.25
2023-05-22T07:51:30.247Z,20.09
2023-05-22T07:52:31.728Z,20.09
2023-05-22T07:53:31.255Z,20.21
2023-05-22T07:54:31.213Z,20.24
2023-05-22T07:55:31.220Z,20.35
2023-05-22T07:56:31.236Z,20.35
2023-05-22T07:57:31.831Z,20.25
2023-05-22T07:59:49.074Z,20.47
2023-05-22T08:00:49.134Z,20.47
2023-05-22T08:01:50.073Z,20.33
2023-05-22T08:02:50.142Z,20.42
2023-05-22T08:03:50.275Z,20.48
2023-05-22T08:04:50.100Z,20.35
2023-05-22T08:05:50.226Z,20.45
2023-05-22T08:06:49.088Z,20.67
2023-05-22T08:07:50.040Z,20.71
2023-05-22T08:08:50.032Z,20.75
2023-05-22T08:09:49.080Z,20.72
2023-05-22T08:11:03.009Z,20.82
2023-05-22T08:11:49.983Z,20.69
2023-05-22T08:12:49.984Z,20.74
2023-05-22T08:13:49.954Z,20.83
2023-05-22T08:14:48.965Z,20.92
2023-05-22T08:15:49.960Z,20.96
2023-05-22T08:16:49.012Z,21.04
2023-05-22T08:17:49.185Z,20.71
2023-05-22T08:18:49.970Z,20.74
2023-05-22T08:19:49.121Z,20.97
2023-05-22T08:20:50.064Z,20.93
2023-05-22T08:21:48.975Z,20.94
2023-05-22T08:22:56.289Z,20.90
2023-05-22T08:23:49.902Z,20.93
2023-05-22T08:24:48.950Z,21.14
2023-05-22T08:25:49.874Z,21.09
2023-05-22T08:26:49.867Z,21.13
2023-05-22T08:27:49.867Z,21.23
2023-05-22T08:28:48.856Z,21.27
2023-05-22T08:29:49.881Z,21.31
2023-05-22T08:30:49.853Z,21.31
2023-05-22T08:31:48.875Z,21.21
2023-05-22T08:32:49.863Z,21.28
2023-05-22T08:33:49.828Z,21.37
2023-05-22T08:34:48.849Z,21.49
2023-05-22T08:35:49.817Z,21.48
2023-05-22T08:36:49.937Z,21.48
2023-05-22T08:37:48.865Z,21.51
2023-05-22T08:38:48.789Z,21.65
2023-05-22T08:39:49.801Z,21.52
2023-05-22T08:40:48.987Z,21.38
2023-05-22T08:41:49.846Z,21.49
2023-05-22T08:42:49.787Z,21.55
2023-05-22T08:43:48.739Z,21.47
2023-05-22T08:44:48.779Z,21.59
2023-05-22T08:45:48.772Z,21.27
2023-05-22T08:46:48.795Z,21.42
2023-05-22T08:47:49.785Z,21.49
2023-05-22T08:48:48.709Z,21.61
2023-05-22T08:49:49.752Z,21.55
2023-05-22T08:50:49.725Z,21.71
2023-05-22T08:51:49.789Z,21.85
2023-05-22T08:52:49.707Z,21.89
2023-05-22T08:53:49.735Z,21.97
2023-05-22T08:54:49.894Z,21.92
2023-05-22T08:55:49.846Z,21.89
2023-05-22T08:56:56.724Z,21.93
2023-05-22T08:57:49.841Z,21.96
2023-05-22T08:58:50.589Z,22.07
2023-05-22T08:59:49.835Z,22.06
2023-05-22T09:00:49.899Z,22.17
2023-05-22T09:01:49.914Z,22.18
2023-05-22T09:02:49.959Z,22.14
2023-05-22T09:03:49.849Z,22.16
2023-05-22T09:04:49.817Z,22.11
2023-05-22T09:05:49.395Z,22.21
2023-05-22T09:06:48.794Z,22.24
2023-05-22T09:07:49.760Z,22.37
2023-05-22T09:08:51.575Z,22.44
2023-05-22T09:09:49.743Z,22.37
2023-05-22T09:10:49.737Z,22.55
2023-05-22T09:11:49.761Z,22.59
2023-05-22T09:12:49.730Z,22.69
2023-05-22T09:13:49.708Z,22.78
2023-05-22T09:14:53.272Z,22.80
2023-05-22T09:15:48.742Z,22.82
2023-05-22T09:16:51.373Z,22.90
2023-05-22T09:17:48.736Z,22.93
2023-05-22T09:18:49.718Z,22.92
2023-05-22T09:19:49.807Z,22.92
2023-05-22T09:22:14.978Z,22.95
2023-05-22T09:23:09.102Z,23.04
2023-05-22T09:25:26.639Z,23.13
2023-05-22T09:26:27.293Z,23.13
2023-05-22T09:27:27.260Z,23.28
2023-05-22T09:28:27.280Z,23.24
2023-05-22T09:29:27.282Z,23.24
2023-05-22T09:30:27.263Z,23.24
2023-05-22T09:31:27.304Z,23.20
2023-05-22T09:33:45.744Z,23.27
2023-05-22T09:34:57.342Z,23.35
2023-05-22T09:35:46.444Z,23.30
2023-05-22T09:36:46.535Z,23.40
2023-05-22T09:37:46.449Z,23.38
2023-05-22T09:38:46.378Z,23.57
2023-05-22T09:39:46.366Z,23.65
2023-05-22T09:40:46.637Z,23.42
2023-05-22T09:41:46.399Z,23.57
2023-05-22T09:42:46.363Z,23.64
2023-05-22T09:43:45.356Z,23.79
2023-05-22T09:44:46.330Z,23.82
2023-05-22T09:45:46.338Z,23.75
2023-05-22T09:46:46.537Z,23.82
2023-05-22T09:47:46.783Z,23.76
2023-05-22T09:48:47.348Z,23.77
2023-05-22T09:49:46.331Z,23.93
2023-05-22T09:50:46.298Z,24.02
2023-05-22T09:51:45.311Z,24.04
2023-05-22T09:52:45.774Z,24.09
2023-05-22T09:53:45.323Z,24.16
2023-05-22T09:54:46.275Z,24.23
2023-05-22T09:55:46.288Z,24.19
2023-05-22T09:56:46.322Z,24.25
2023-05-22T09:57:46.288Z,24.27
2023-05-22T09:58:45.686Z,24.25
2023-05-22T09:59:46.243Z,24.23
2023-05-22T10:00:46.276Z,24.34
2023-05-22T10:01:46.375Z,24.32
2023-05-22T10:02:45.320Z,24.44
2023-05-22T10:03:46.733Z,24.41
2023-05-22T10:04:46.530Z,24.52
2023-05-22T10:05:45.529Z,24.52
2023-05-22T10:06:46.848Z,24.59
2023-05-22T10:07:46.651Z,24.52
2023-05-22T10:08:45.642Z,24.56
2023-05-22T10:09:46.770Z,24.61
2023-05-22T10:10:46.679Z,24.62
2023-05-22T10:11:46.731Z,24.66
2023-05-22T10:12:45.908Z,24.69
2023-05-22T10:13:46.824Z,24.56
2023-05-22T10:14:46.917Z,24.64
2023-05-22T10:15:46.892Z,24.75
2023-05-22T10:16:46.896Z,24.73
2023-05-22T10:17:46.968Z,24.90
2023-05-22T10:18:46.963Z,24.99
2023-05-22T10:19:46.865Z,24.94
2023-05-22T10:20:45.949Z,24.97
2023-05-22T10:21:46.948Z,25.06
2023-05-22T10:22:47.008Z,25.06
2023-05-22T10:23:46.039Z,24.99
2023-05-22T10:24:47.030Z,24.99
2023-05-22T10:25:46.075Z,25.09
2023-05-22T10:26:47.110Z,25.11
2023-05-22T10:27:47.137Z,25.27
2023-05-22T10:28:46.269Z,25.23
2023-05-22T10:29:47.193Z,25.27
2023-05-22T10:30:47.242Z,25.34
2023-05-22T10:31:47.285Z,25.38
2023-05-22T10:35:30.570Z,25.58
2023-05-22T10:38:19.037Z,25.61
2023-05-22T10:46:41.173Z,25.79
2023-05-22T10:48:54.964Z,25.80
2023-05-22T10:49:55.779Z,25.86
2023-05-22T10:50:54.783Z,26.01
2023-05-22T10:51:55.750Z,25.97
2023-05-22T10:52:55.739Z,26.13
2023-05-22T10:53:54.706Z,26.07
2023-05-22T10:54:54.702Z,26.20
2023-05-22T10:55:54.693Z,26.24
2023-05-22T10:56:55.696Z,26.31
2023-05-22T10:57:55.961Z,26.23
2023-05-22T10:58:55.718Z,26.31
2023-05-22T10:59:54.688Z,26.38
2023-05-22T11:00:55.667Z,26.24
2023-05-22T11:03:18.032Z,26.52
2023-05-22T11:04:14.492Z,26.56
2023-05-22T11:05:14.471Z,26.60
2023-05-22T11:06:13.432Z,26.66
2023-05-22T11:07:13.488Z,26.63
2023-05-22T11:08:14.464Z,26.63
2023-05-22T11:09:13.435Z,26.65
2023-05-22T11:10:13.423Z,26.65
2023-05-22T11:11:14.421Z,26.76
2023-05-22T11:12:14.439Z,26.79
2023-05-22T11:13:13.479Z,26.86
2023-05-22T11:14:13.388Z,27.00
2023-05-22T11:15:14.441Z,26.86
2023-05-22T11:16:14.476Z,26.85
2023-05-22T11:17:14.548Z,26.89
2023-05-22T11:18:14.727Z,27.00
2023-05-22T11:19:23.257Z,27.04
2023-05-22T11:20:14.554Z,27.18
2023-05-22T11:21:13.666Z,27.24
2023-05-22T11:23:32.416Z,27.24
2023-05-22T11:24:32.288Z,27.27
2023-05-22T11:25:32.278Z,27.33
2023-05-22T11:26:33.288Z,27.49
2023-05-22T11:27:33.361Z,27.44
2023-05-22T11:28:33.278Z,27.54
2023-05-22T11:29:33.279Z,27.61
2023-05-22T11:30:33.237Z,27.55
2023-05-22T11:31:32.478Z,27.58
2023-05-22T11:32:33.465Z,27.68
2023-05-22T11:33:33.334Z,27.72
2023-05-22T11:34:32.341Z,27.72
2023-05-22T11:35:32.333Z,27.83
2023-05-22T11:36:33.260Z,27.71
2023-05-22T11:37:33.997Z,27.80
2023-05-22T11:38:33.207Z,27.82
2023-05-22T11:39:33.192Z,27.92
2023-05-22T11:40:33.208Z,28.07
2023-05-22T11:41:33.619Z,27.92
2023-05-22T11:42:33.181Z,28.01
2023-05-22T11:43:32.223Z,28.01
2023-05-22T11:44:32.199Z,28.14
2023-05-22T11:45:33.208Z,28.17
2023-05-22T11:46:32.327Z,28.27
2023-05-22T11:47:33.766Z,28.34
2023-05-22T11:48:32.362Z,28.30
2023-05-22T11:49:33.327Z,27.95
2023-05-22T11:50:43.275Z,28.04
2023-05-22T11:51:33.340Z,28.17
2023-05-22T11:52:33.349Z,28.18
2023-05-22T11:53:33.399Z,28.21
2023-05-22T11:54:33.817Z,28.41
2023-05-22T11:55:33.443Z,28.34
2023-05-22T11:56:32.329Z,28.40
2023-05-22T11:57:33.317Z,28.51
2023-05-22T11:58:33.334Z,28.55
2023-05-22T11:59:33.404Z,28.66
2023-05-22T12:00:33.516Z,28.69
2023-05-22T12:01:32.412Z,28.70
2023-05-22T12:02:33.513Z,28.62
2023-05-22T12:03:32.537Z,28.85
2023-05-22T12:04:32.463Z,28.41
2023-05-22T12:05:33.532Z,28.27
2023-05-22T12:06:33.702Z,28.54
2023-05-22T12:07:33.568Z,28.25
2023-05-22T12:08:33.569Z,28.11
2023-05-22T12:09:32.599Z,27.96
2023-05-22T12:10:32.606Z,28.06
2023-05-22T12:11:33.651Z,28.13
2023-05-22T12:12:32.690Z,28.38
2023-05-22T12:13:33.691Z,28.37
2023-05-22T12:14:32.802Z,28.59
2023-05-22T12:15:33.820Z,28.69
2023-05-22T12:16:33.832Z,28.68
2023-05-22T12:17:32.858Z,28.73
2023-05-22T12:18:33.895Z,28.95
2023-05-22T12:19:32.942Z,28.90
2023-05-22T12:20:33.925Z,29.02
2023-05-22T12:21:33.968Z,28.82
2023-05-22T12:22:34.121Z,28.93
2023-05-22T12:23:34.005Z,28.75
2023-05-22T12:24:33.064Z,28.73
2023-05-22T12:25:34.101Z,28.54
2023-05-22T12:26:33.107Z,28.73
2023-05-22T12:27:35.347Z,28.92
2023-05-22T12:28:34.239Z,28.92
2023-05-22T12:29:34.135Z,28.89
2023-05-22T12:30:34.136Z,29.02
2023-05-22T12:31:33.136Z,29.13
2023-05-22T12:32:33.161Z,29.14
2023-05-22T12:33:34.113Z,29.13
2023-05-22T12:34:34.136Z,29.14
2023-05-22T12:35:34.088Z,29.27
2023-05-22T12:36:34.083Z,29.48
2023-05-22T12:37:33.712Z,29.59
2023-05-22T12:38:35.426Z,29.76
2023-05-22T12:39:34.177Z,29.40
2023-05-22T12:40:33.196Z,29.40
2023-05-22T12:41:34.210Z,29.62
2023-05-22T12:42:34.213Z,29.79
2023-05-22T12:43:33.285Z,29.79
2023-05-22T12:44:33.313Z,29.96
2023-05-22T12:45:34.360Z,29.99
2023-05-22T12:46:34.407Z,30.10
2023-05-22T12:47:33.449Z,29.93
2023-05-22T12:48:33.458Z,29.71
2023-05-22T12:49:34.483Z,29.72
2023-05-22T12:50:34.496Z,29.84
2023-05-22T12:51:33.648Z,29.80
2023-05-22T12:52:34.591Z,29.51
2023-05-22T12:53:34.630Z,29.37
2023-05-22T12:54:34.783Z,29.40
2023-05-22T12:55:33.708Z,29.59
2023-05-22T12:56:34.731Z,29.86
2023-05-22T12:57:34.779Z,29.77
2023-05-22T12:58:34.776Z,30.10
2023-05-22T12:59:33.874Z,30.11
2023-05-22T13:00:34.872Z,30.13
2023-05-22T13:01:33.861Z,30.04
2023-05-22T13:02:33.929Z,30.23
2023-05-22T13:03:34.964Z,30.26
2023-05-22T13:04:35.401Z,30.21
2023-05-22T13:05:33.979Z,30.18
2023-05-22T13:06:35.017Z,30.01
2023-05-22T13:07:35.080Z,30.04
2023-05-22T13:08:35.107Z,29.90
2023-05-22T13:09:34.105Z,29.89
2023-05-22T13:10:34.265Z,29.65
2023-05-22T13:11:35.185Z,29.93
2023-05-22T13:12:34.186Z,30.23
2023-05-22T13:13:35.238Z,30.20
2023-05-22T13:14:34.233Z,29.65
2023-05-22T13:15:35.267Z,29.75
2023-05-22T13:16:34.444Z,29.97
2023-05-22T13:17:35.340Z,30.24
2023-05-22T13:18:35.316Z,30.44
2023-05-22T13:19:34.546Z,30.44
2023-05-22T13:20:35.392Z,30.39
2023-05-22T13:21:34.400Z,30.44
2023-05-22T13:22:34.474Z,30.69
2023-05-22T13:23:35.450Z,30.63
2023-05-22T13:24:35.504Z,30.69
2023-05-22T13:25:35.524Z,30.68
2023-05-22T13:26:34.660Z,30.90
2023-05-22T13:27:34.558Z,30.52
2023-05-22T13:28:34.598Z,30.45
2023-05-22T13:29:34.573Z,30.32
2023-05-22T13:30:35.585Z,29.82
2023-05-22T13:31:35.614Z,29.83
2023-05-22T13:32:35.678Z,29.77
2023-05-22T13:33:34.701Z,29.82
2023-05-22T13:34:34.870Z,29.84
2023-05-22T13:35:35.772Z,30.04
2023-05-22T13:36:35.814Z,30.01
2023-05-22T13:37:35.854Z,30.01
2023-05-22T13:38:35.849Z,30.41
2023-05-22T13:39:35.886Z,30.62
2023-05-22T13:40:34.928Z,30.69
2023-05-22T13:41:35.935Z,30.54
2023-05-22T13:42:36.092Z,30.78
2023-05-22T13:43:36.007Z,30.97
2023-05-22T13:44:36.042Z,30.89
2023-05-22T13:45:36.082Z,30.89
2023-05-22T13:46:37.291Z,30.75
2023-05-22T13:47:36.166Z,30.82
2023-05-22T13:48:35.126Z,31.17
2023-05-22T13:49:35.118Z,31.21
2023-05-22T13:50:35.094Z,31.33
2023-05-22T13:51:36.109Z,31.53
2023-05-22T13:52:36.117Z,31.68
2023-05-22T13:53:35.103Z,31.37
2023-05-22T13:54:35.070Z,31.30
2023-05-22T13:55:36.061Z,31.30
2023-05-22T13:56:36.065Z,31.23
2023-05-22T13:57:36.069Z,31.24
2023-05-22T13:58:35.189Z,31.16
2023-05-22T13:59:35.058Z,31.61
2023-05-22T14:00:36.058Z,31.20
2023-05-22T14:01:35.052Z,30.97
2023-05-22T14:02:36.142Z,31.12
2023-05-22T14:03:35.094Z,31.09
2023-05-22T14:04:36.015Z,31.10
2023-05-22T14:05:35.009Z,31.28
2023-05-22T14:06:35.018Z,31.20
2023-05-22T14:07:35.992Z,31.13
2023-05-22T14:08:35.979Z,31.13
2023-05-22T14:09:35.992Z,31.07
2023-05-22T14:10:35.965Z,30.82
2023-05-22T14:11:36.021Z,30.97
2023-05-22T14:12:35.970Z,30.68
2023-05-22T14:13:34.963Z,31.20
2023-05-22T14:14:35.081Z,31.17
2023-05-22T14:15:34.925Z,30.76
2023-05-22T14:16:35.955Z,30.93
2023-05-22T14:17:34.976Z,31.16
2023-05-22T14:18:34.939Z,31.34
2023-05-22T14:19:34.958Z,31.44
2023-05-22T14:20:35.886Z,31.40
2023-05-22T14:21:35.899Z,31.51
2023-05-22T14:22:47.929Z,31.78
2023-05-22T14:23:35.882Z,31.90
2023-05-22T14:24:35.912Z,31.83
2023-05-22T14:25:35.857Z,31.95
2023-05-22T14:26:35.856Z,31.86
2023-05-22T14:27:34.846Z,32.11
2023-05-22T14:28:35.847Z,32.30
2023-05-22T14:29:34.848Z,32.30